createdAt,value
2023-01-19T00:01:47.713Z,20.30
2023-01-19T00:04:17.907Z,16.70
2023-01-19T00:06:48.034Z,18.85
2023-01-19T00:09:18.204Z,13.18
2023-01-19T00:11:48.328Z,17.00
2023-01-19T00:14:18.442Z,14.80
2023-01-19T00:16:48.695Z,14.50
2023-01-19T00:19:18.903Z,13.48
2023-01-19T00:21:49.114Z,23.42
2023-01-19T00:24:19.426Z,22.52
2023-01-19T00:26:57.993Z,19.08
2023-01-19T00:29:34.542Z,18.77
2023-01-19T00:32:06.920Z,27.30
2023-01-19T00:34:39.756Z,28.70
2023-01-19T00:37:10.668Z,31.38
2023-01-19T00:39:40.969Z,22.27
2023-01-19T00:42:32.904Z,39.60
2023-01-19T00:45:03.019Z,23.42
2023-01-19T00:47:33.524Z,17.20
2023-01-19T00:50:04.059Z,30.45
2023-01-19T00:52:34.247Z,20.92
2023-01-19T00:55:05.124Z,20.58
2023-01-19T00:57:35.432Z,15.80
2023-01-19T01:00:09.068Z,19.77
2023-01-19T01:02:41.603Z,27.23
2023-01-19T01:05:12.633Z,18.02
2023-01-19T01:07:44.746Z,27.95
2023-01-19T01:10:24.327Z,21.13
2023-01-19T01:12:57.612Z,15.27
2023-01-19T01:15:30.133Z,14.38
2023-01-19T01:18:00.309Z,20.83
2023-01-19T01:20:31.276Z,19.55
2023-01-19T01:23:01.786Z,25.85
2023-01-19T01:25:35.469Z,30.83
2023-01-19T01:28:08.803Z,18.45
2023-01-19T01:30:41.150Z,24.25
2023-01-19T01:33:14.107Z,19.30
2023-01-19T01:35:44.294Z,19.58
2023-01-19T01:38:14.425Z,19.92
2023-01-19T01:40:44.940Z,28.95
2023-01-19T01:43:16.916Z,19.08
2023-01-19T01:45:47.478Z,19.65
2023-01-19T01:48:30.907Z,27.25
2023-01-19T01:51:24.876Z,34.28
2023-01-19T01:54:00.728Z,20.30
2023-01-19T01:56:44.061Z,29.20
2023-01-19T01:59:26.307Z,28.77
2023-01-19T02:02:18.226Z,28.13
2023-01-19T02:05:00.619Z,27.92
2023-01-19T02:08:00.927Z,21.73
2023-01-19T02:10:50.576Z,23.38
2023-01-19T02:13:21.386Z,22.75
2023-01-19T02:15:54.790Z,25.17
2023-01-19T02:18:28.705Z,20.60
2023-01-19T02:21:26.445Z,34.60
2023-01-19T02:23:59.116Z,19.40
2023-01-19T02:26:37.916Z,38.97
2023-01-19T02:29:11.719Z,29.00
2023-01-19T02:31:42.649Z,22.27
2023-01-19T02:34:16.187Z,31.10
2023-01-19T02:36:56.360Z,23.30
2023-01-19T02:39:33.639Z,36.22
2023-01-19T02:42:17.325Z,21.77
2023-01-19T02:44:50.569Z,20.42
2023-01-19T02:47:20.854Z,19.40
2023-01-19T02:49:57.992Z,18.52
2023-01-19T02:55:18.314Z,14.13
2023-01-19T02:58:05.550Z,22.27
2023-01-19T03:01:24.046Z,20.05
2023-01-19T03:04:22.756Z,15.45
2023-01-19T03:07:01.058Z,18.00
2023-01-19T03:09:58.553Z,20.45
2023-01-19T03:12:51.997Z,18.13
2023-01-19T03:15:40.385Z,19.23
2023-01-19T03:18:15.044Z,18.08
2023-01-19T03:20:46.454Z,21.58
2023-01-19T03:23:17.684Z,19.95
2023-01-19T03:25:50.260Z,28.42
2023-01-19T03:28:24.311Z,28.73
2023-01-19T03:31:00.755Z,21.92
2023-01-19T03:33:35.370Z,18.98
2023-01-19T03:36:13.920Z,20.92
2023-01-19T03:38:46.993Z,16.85
2023-01-19T03:41:19.844Z,17.48
2023-01-19T03:43:52.156Z,14.35
2023-01-19T03:46:24.235Z,11.32
2023-01-19T03:48:55.254Z,15.68
2023-01-19T03:51:25.678Z,19.65
2023-01-19T03:53:55.791Z,15.90
2023-01-19T03:56:26.291Z,19.95
2023-01-19T03:58:57.063Z,32.75
2023-01-19T04:01:27.418Z,19.70
2023-01-19T04:03:58.577Z,29.45
2023-01-19T04:06:28.735Z,14.75
2023-01-19T04:09:06.761Z,19.45
2023-01-19T04:11:36.909Z,31.05
2023-01-19T04:14:07.122Z,46.40
2023-01-19T04:16:37.288Z,34.05
2023-01-19T04:19:07.408Z,32.15
2023-01-19T04:21:37.605Z,23.02
2023-01-19T04:24:09.143Z,22.77
2023-01-19T04:26:39.443Z,20.58
2023-01-19T04:29:09.932Z,26.48
2023-01-19T04:31:40.119Z,22.55
2023-01-19T04:34:10.492Z,31.35
2023-01-19T04:36:40.628Z,32.90
2023-01-19T04:39:11.856Z,32.15
2023-01-19T04:41:41.986Z,24.75
2023-01-19T04:44:12.153Z,18.02
2023-01-19T04:46:42.374Z,19.23
2023-01-19T04:49:12.511Z,22.30
2023-01-19T04:51:42.696Z,49.28
2023-01-19T04:54:12.868Z,82.30
2023-01-19T04:56:43.277Z,49.33
2023-01-19T04:59:13.899Z,48.05
2023-01-19T05:01:44.193Z,37.65
2023-01-19T05:04:14.520Z,49.85
2023-01-19T05:06:44.623Z,40.97
2023-01-19T05:09:15.523Z,40.55
2023-01-19T05:11:46.486Z,31.90
2023-01-19T05:14:16.636Z,25.40
2023-01-19T05:16:46.791Z,29.23
2023-01-19T05:19:16.976Z,39.38
2023-01-19T05:21:47.187Z,32.53
2023-01-19T05:24:17.345Z,39.83
2023-01-19T05:26:47.548Z,54.20
2023-01-19T05:29:17.637Z,46.90
2023-01-19T05:31:48.508Z,42.20
2023-01-19T05:34:18.890Z,42.65
2023-01-19T05:36:50.023Z,36.25
2023-01-19T05:39:20.568Z,38.97
2023-01-19T05:41:50.862Z,70.50
2023-01-19T05:44:22.758Z,114.75
2023-01-19T05:46:53.098Z,121.07
2023-01-19T05:49:23.377Z,78.38
2023-01-19T05:51:53.546Z,72.28
2023-01-19T05:54:24.009Z,64.63
2023-01-19T05:56:54.326Z,78.05
2023-01-19T05:59:24.515Z,64.45
2023-01-19T06:01:55.063Z,58.50
2023-01-19T06:04:25.640Z,58.28
2023-01-19T06:06:55.771Z,66.53
2023-01-19T06:09:27.497Z,66.00
2023-01-19T06:11:59.601Z,50.65
2023-01-19T06:14:29.762Z,53.05
2023-01-19T06:16:59.919Z,66.00
2023-01-19T06:19:30.367Z,49.10
2023-01-19T06:22:01.072Z,43.97
2023-01-19T06:24:31.299Z,35.75
2023-01-19T06:27:01.422Z,29.88
2023-01-19T06:29:31.593Z,25.48
2023-01-19T06:32:01.879Z,23.35
2023-01-19T06:34:32.047Z,25.40
2023-01-19T06:37:02.115Z,19.05
2023-01-19T06:39:32.331Z,18.95
2023-01-19T06:42:02.368Z,29.98
2023-01-19T06:44:32.614Z,18.25
2023-01-19T06:47:15.151Z,19.38
2023-01-19T06:49:46.232Z,24.27
2023-01-19T06:52:17.696Z,26.40
2023-01-19T06:54:47.880Z,27.00
2023-01-19T06:57:19.924Z,26.52
2023-01-19T06:59:50.056Z,25.23
2023-01-19T07:02:27.360Z,37.38
2023-01-19T07:04:58.198Z,26.88
2023-01-19T07:07:28.382Z,48.28
2023-01-19T07:09:58.623Z,32.30
2023-01-19T07:12:30.673Z,23.63
2023-01-19T07:15:00.895Z,37.85
2023-01-19T07:17:31.115Z,34.75
2023-01-19T07:20:01.923Z,33.15
2023-01-19T07:22:32.065Z,20.42
2023-01-19T07:25:02.220Z,24.25
2023-01-19T07:27:32.303Z,24.25
2023-01-19T07:30:02.602Z,22.48
2023-01-19T07:32:32.735Z,24.52
2023-01-19T07:35:02.990Z,20.88
2023-01-19T07:37:33.100Z,20.30
2023-01-19T07:40:04.013Z,16.70
2023-01-19T07:42:34.159Z,25.05
2023-01-19T07:45:07.441Z,21.20
2023-01-19T07:47:40.061Z,20.20
2023-01-19T07:50:17.596Z,24.65
2023-01-19T07:52:50.732Z,16.75
2023-01-19T07:55:22.603Z,15.20
2023-01-19T07:57:52.781Z,16.40
2023-01-19T08:00:24.934Z,18.83
2023-01-19T08:03:00.541Z,16.15
2023-01-19T08:05:36.071Z,19.20
2023-01-19T08:08:06.343Z,14.43
2023-01-19T08:10:36.498Z,14.35
2023-01-19T08:13:06.818Z,17.67
2023-01-19T08:15:37.729Z,20.38
2023-01-19T08:18:10.030Z,20.42
2023-01-19T08:20:40.171Z,20.27
2023-01-19T08:23:10.865Z,18.75
2023-01-19T08:25:44.595Z,19.73
2023-01-19T08:28:16.956Z,20.88
2023-01-19T08:30:54.176Z,17.25
2023-01-19T08:33:25.468Z,23.95
2023-01-19T08:35:55.673Z,22.13
2023-01-19T08:38:25.921Z,26.58
2023-01-19T08:40:56.044Z,29.73
2023-01-19T08:43:26.203Z,28.13
2023-01-19T08:45:56.618Z,20.48
2023-01-19T08:48:26.756Z,25.10
2023-01-19T08:50:57.331Z,20.65
2023-01-19T08:53:27.605Z,23.33
2023-01-19T08:56:01.443Z,20.27
2023-01-19T08:58:31.615Z,27.30
2023-01-19T09:01:03.208Z,27.00
2023-01-19T09:03:35.743Z,25.85
2023-01-19T09:06:07.463Z,16.02
2023-01-19T09:08:37.711Z,20.17
2023-01-19T09:11:11.715Z,18.58
2023-01-19T09:13:41.990Z,24.45
2023-01-19T09:16:13.534Z,20.65
2023-01-19T09:18:45.264Z,22.98
2023-01-19T09:21:15.415Z,26.75
2023-01-19T09:23:45.583Z,25.25
2023-01-19T09:26:16.239Z,31.33
2023-01-19T09:28:46.399Z,24.98
2023-01-19T09:31:16.672Z,27.05
2023-01-19T09:33:46.982Z,20.52
2023-01-19T09:36:17.264Z,26.95
2023-01-19T09:38:47.484Z,24.05
2023-01-19T09:41:22.534Z,22.52
2023-01-19T09:43:58.687Z,24.85
2023-01-19T09:46:28.953Z,25.52
2023-01-19T09:49:05.071Z,27.00
2023-01-19T09:51:41.581Z,27.58
2023-01-19T09:54:19.531Z,20.65
2023-01-19T09:56:52.455Z,28.65
2023-01-19T09:59:30.242Z,35.67
2023-01-19T10:02:06.296Z,21.83
2023-01-19T10:04:54.806Z,25.98
2023-01-19T10:07:58.598Z,31.67
2023-01-19T10:10:36.128Z,35.15
2023-01-19T10:13:24.962Z,23.15
2023-01-19T10:16:10.015Z,22.92
2023-01-19T10:18:51.782Z,28.55
2023-01-19T10:21:28.236Z,42.35
2023-01-19T10:24:06.927Z,43.20
2023-01-19T10:26:47.568Z,47.97
2023-01-19T10:29:23.520Z,37.95
2023-01-19T10:32:17.607Z,45.83
2023-01-19T10:34:49.350Z,31.73
2023-01-19T10:37:37.258Z,29.13
2023-01-19T10:40:10.287Z,35.33
2023-01-19T10:42:41.935Z,36.13
2023-01-19T10:45:25.978Z,26.27
2023-01-19T10:48:00.902Z,30.08
2023-01-19T10:50:34.135Z,25.83
2023-01-19T10:53:06.375Z,31.40
2023-01-19T10:55:40.404Z,50.55
2023-01-19T10:58:31.683Z,38.00
2023-01-19T11:01:23.588Z,32.20
2023-01-19T11:03:56.100Z,27.83
2023-01-19T11:06:30.956Z,22.08
2023-01-19T11:09:27.233Z,20.98
2023-01-19T11:12:00.001Z,23.48
2023-01-19T11:14:31.429Z,37.25
2023-01-19T11:17:01.635Z,25.65
2023-01-19T11:19:33.841Z,27.27
2023-01-19T11:22:22.962Z,27.75
2023-01-19T11:24:53.358Z,24.33
2023-01-19T11:27:34.847Z,21.73
2023-01-19T11:30:26.347Z,38.92
2023-01-19T11:32:56.940Z,24.63
2023-01-19T11:35:39.647Z,25.75
2023-01-19T11:38:12.694Z,25.45
2023-01-19T11:40:53.253Z,25.65
2023-01-19T11:43:25.453Z,23.63
2023-01-19T11:45:57.558Z,27.30
2023-01-19T11:48:36.272Z,25.30
2023-01-19T11:51:14.373Z,20.83
2023-01-19T11:53:49.415Z,21.83
2023-01-19T11:56:26.341Z,37.97
2023-01-19T11:58:56.904Z,23.52
2023-01-19T12:01:35.756Z,16.10
2023-01-19T12:04:16.724Z,20.38
2023-01-19T12:06:54.143Z,21.58
2023-01-19T12:09:39.032Z,21.08
2023-01-19T12:12:23.026Z,36.80
2023-01-19T12:14:55.968Z,33.00
2023-01-19T12:17:40.883Z,22.30
2023-01-19T12:20:38.689Z,17.48
2023-01-19T12:23:11.825Z,19.48
2023-01-19T12:26:23.191Z,20.00
2023-01-19T12:28:58.800Z,26.13
2023-01-19T12:31:29.126Z,38.22
2023-01-19T12:34:25.264Z,27.33
2023-01-19T12:36:57.546Z,30.15
2023-01-19T12:39:27.770Z,21.88
2023-01-19T12:42:13.403Z,24.40
2023-01-19T12:44:47.200Z,29.42
2023-01-19T12:47:24.608Z,28.67
2023-01-19T12:50:05.927Z,27.83
2023-01-19T12:52:51.737Z,27.55
2023-01-19T12:55:31.241Z,24.17
2023-01-19T12:58:07.221Z,24.65
2023-01-19T13:00:40.140Z,30.33
2023-01-19T13:03:16.354Z,42.65
2023-01-19T13:05:52.828Z,26.03
2023-01-19T13:08:25.594Z,33.10
2023-01-19T13:11:11.033Z,29.23
2023-01-19T13:14:05.424Z,40.88
2023-01-19T13:16:35.509Z,41.47
2023-01-19T13:19:05.625Z,35.25
2023-01-19T13:21:45.771Z,46.38
2023-01-19T13:24:19.188Z,35.15
2023-01-19T13:26:49.267Z,36.03
2023-01-19T13:29:30.722Z,56.08
2023-01-19T13:32:04.972Z,33.40
2023-01-19T13:34:47.898Z,38.70
2023-01-19T13:37:26.178Z,37.65
2023-01-19T13:39:57.244Z,34.90
2023-01-19T13:42:35.805Z,35.92
2023-01-19T13:45:27.679Z,39.85
2023-01-19T13:48:02.173Z,41.55
2023-01-19T13:50:36.095Z,41.33
2023-01-19T13:53:20.886Z,33.22
2023-01-19T13:56:20.898Z,31.42
2023-01-19T13:59:07.246Z,30.95
2023-01-19T14:01:40.067Z,36.22
2023-01-19T14:04:35.602Z,31.55
2023-01-19T14:07:13.401Z,28.27
2023-01-19T14:09:43.723Z,30.08
2023-01-19T14:12:17.678Z,37.78
2023-01-19T14:14:48.451Z,30.75
2023-01-19T14:17:23.837Z,28.05
2023-01-19T14:19:57.435Z,32.78
2023-01-19T14:22:49.245Z,27.75
2023-01-19T14:25:31.771Z,53.05
2023-01-19T14:28:35.593Z,43.42
2023-01-19T14:31:23.144Z,42.10
2023-01-19T14:33:55.619Z,30.95
2023-01-19T14:36:26.058Z,33.58
2023-01-19T14:38:59.421Z,35.50
2023-01-19T14:41:35.509Z,34.17
2023-01-19T14:44:11.656Z,38.17
2023-01-19T14:46:48.131Z,32.90
2023-01-19T14:49:36.686Z,42.13
2023-01-19T14:52:20.908Z,35.15
2023-01-19T14:54:52.065Z,30.00
2023-01-19T14:57:22.520Z,37.63
2023-01-19T14:59:57.144Z,30.63
2023-01-19T15:02:32.918Z,26.67
2023-01-19T15:05:06.404Z,37.53
2023-01-19T15:07:39.105Z,33.55
2023-01-19T15:10:22.755Z,28.58
2023-01-19T15:12:55.084Z,32.60
2023-01-19T15:15:33.293Z,40.35
2023-01-19T15:18:05.047Z,34.63
2023-01-19T15:20:35.151Z,27.98
2023-01-19T15:23:05.373Z,35.90
2023-01-19T15:25:35.635Z,26.38
2023-01-19T15:28:11.778Z,33.75
2023-01-19T15:30:41.963Z,29.23
2023-01-19T15:33:20.996Z,25.77
2023-01-19T15:35:51.732Z,39.60
2023-01-19T15:38:22.527Z,33.28
2023-01-19T15:40:52.764Z,31.52
2023-01-19T15:43:22.932Z,32.70
2023-01-19T15:46:02.770Z,31.50
2023-01-19T15:48:35.781Z,29.83
2023-01-19T15:51:06.199Z,31.55
2023-01-19T15:53:36.396Z,30.90
2023-01-19T15:56:07.159Z,26.67
2023-01-19T15:58:38.438Z,43.22
2023-01-19T16:01:15.478Z,31.13
2023-01-19T16:06:18.003Z,32.00
2023-01-19T16:08:48.127Z,30.38
2023-01-19T16:11:18.839Z,25.33
2023-01-19T16:13:48.957Z,29.55
2023-01-19T16:16:21.842Z,26.23
2023-01-19T16:18:52.379Z,23.20
2023-01-19T16:21:22.681Z,27.13
2023-01-19T16:23:53.770Z,29.55
2023-01-19T16:26:34.693Z,31.73
2023-01-19T16:29:09.468Z,28.02
2023-01-19T16:31:41.804Z,27.10
2023-01-19T16:34:12.016Z,28.48
2023-01-19T16:36:43.612Z,27.35
2023-01-19T16:39:15.284Z,30.42
2023-01-19T16:41:45.916Z,27.90
2023-01-19T16:44:16.862Z,28.20
2023-01-19T16:46:49.949Z,32.28
2023-01-19T16:49:23.099Z,29.75
2023-01-19T16:51:58.554Z,39.35
2023-01-19T16:54:29.426Z,37.80
2023-01-19T16:56:59.662Z,34.35
2023-01-19T16:59:29.958Z,33.33
2023-01-19T17:02:00.445Z,36.30
2023-01-19T17:04:30.865Z,37.80
2023-01-19T17:07:01.003Z,37.58
2023-01-19T17:09:31.619Z,26.65
2023-01-19T17:12:01.874Z,28.95
2023-01-19T17:14:32.510Z,38.10
2023-01-19T17:17:02.770Z,34.10
2023-01-19T17:19:32.967Z,48.55
2023-01-19T17:22:03.065Z,50.03
2023-01-19T17:24:33.701Z,69.40
2023-01-19T17:27:03.948Z,44.05
2023-01-19T17:29:34.344Z,44.88
2023-01-19T17:32:07.376Z,42.15
2023-01-19T17:34:37.669Z,38.60
2023-01-19T17:37:07.801Z,51.67
2023-01-19T17:39:37.922Z,41.35
2023-01-19T17:42:08.079Z,43.28
2023-01-19T17:44:38.262Z,49.53
2023-01-19T17:47:08.453Z,51.58
2023-01-19T17:49:38.684Z,39.97
2023-01-19T17:52:09.792Z,39.88
2023-01-19T17:54:40.050Z,36.17
2023-01-19T17:57:10.179Z,31.13
2023-01-19T17:59:43.863Z,53.20
2023-01-19T18:02:14.469Z,45.13
2023-01-19T18:04:44.789Z,43.35
2023-01-19T18:07:15.643Z,34.80
2023-01-19T18:09:46.039Z,37.30
2023-01-19T18:12:20.255Z,32.60
2023-01-19T18:14:51.067Z,31.60
2023-01-19T18:17:21.204Z,26.77
2023-01-19T18:19:51.546Z,48.58
2023-01-19T18:22:21.759Z,31.17
2023-01-19T18:24:52.414Z,28.77
2023-01-19T18:27:23.033Z,31.42
2023-01-19T18:29:53.193Z,35.40
2023-01-19T18:32:25.250Z,45.13
2023-01-19T18:34:58.310Z,33.10
2023-01-19T18:37:35.230Z,46.55
2023-01-19T18:40:05.860Z,29.25
2023-01-19T18:42:36.009Z,35.40
2023-01-19T18:45:06.786Z,38.22
2023-01-19T18:47:37.007Z,34.70
2023-01-19T18:50:07.440Z,30.10
2023-01-19T18:52:37.674Z,30.10
2023-01-19T18:55:08.221Z,27.55
2023-01-19T18:57:38.603Z,31.58
2023-01-19T19:00:09.204Z,28.30
2023-01-19T19:02:39.369Z,28.40
2023-01-19T19:05:09.798Z,33.13
2023-01-19T19:07:39.968Z,29.88
2023-01-19T19:10:11.057Z,32.80
2023-01-19T19:12:41.501Z,36.90
2023-01-19T19:15:12.029Z,33.53
2023-01-19T19:17:42.213Z,38.90
2023-01-19T19:20:13.069Z,30.88
2023-01-19T19:22:43.379Z,32.67
2023-01-19T19:25:13.565Z,38.17
2023-01-19T19:27:45.579Z,36.03
2023-01-19T19:30:16.094Z,32.83
2023-01-19T19:32:51.507Z,28.75
2023-01-19T19:35:22.604Z,34.95
2023-01-19T19:37:57.647Z,35.42
2023-01-19T19:40:28.349Z,37.65
2023-01-19T19:42:58.928Z,32.25
2023-01-19T19:45:29.183Z,34.28
2023-01-19T19:47:59.334Z,31.17
2023-01-19T19:50:29.384Z,35.53
2023-01-19T19:53:00.435Z,35.72
2023-01-19T19:55:30.652Z,37.53
2023-01-19T19:58:00.880Z,40.83
2023-01-19T20:00:31.215Z,31.15
2023-01-19T20:03:02.306Z,32.95
2023-01-19T20:05:35.974Z,36.13
2023-01-19T20:08:06.139Z,39.58
2023-01-19T20:10:37.648Z,37.40
2023-01-19T20:13:09.282Z,29.63
2023-01-19T20:15:39.699Z,30.08
2023-01-19T20:18:09.953Z,32.22
2023-01-19T20:20:40.136Z,32.45
2023-01-19T20:23:10.391Z,33.85
2023-01-19T20:25:40.546Z,34.05
2023-01-19T20:28:10.639Z,32.55
2023-01-19T20:30:40.843Z,39.17
2023-01-19T20:33:11.765Z,33.67
2023-01-19T20:35:42.019Z,43.92
2023-01-19T20:38:12.216Z,38.90
2023-01-19T20:40:42.431Z,38.72
2023-01-19T20:43:12.618Z,38.30
2023-01-19T20:45:42.949Z,34.85
2023-01-19T20:48:13.201Z,38.10
2023-01-19T20:50:43.392Z,39.08
2023-01-19T20:53:13.890Z,32.30
2023-01-19T20:55:44.285Z,37.33
2023-01-19T20:58:14.761Z,38.70
2023-01-19T21:00:46.115Z,35.88
2023-01-19T21:03:17.096Z,32.08
2023-01-19T21:05:48.691Z,41.53
2023-01-19T21:08:18.944Z,35.22
2023-01-19T21:10:49.122Z,34.60
2023-01-19T21:13:19.234Z,32.20
2023-01-19T21:15:49.401Z,35.42
2023-01-19T21:18:19.797Z,31.63
2023-01-19T21:20:50.113Z,33.95
2023-01-19T21:23:21.520Z,32.63
2023-01-19T21:25:57.311Z,29.42
2023-01-19T21:28:28.817Z,37.35
2023-01-19T21:31:06.368Z,55.20
2023-01-19T21:33:36.538Z,66.35
2023-01-19T21:36:07.065Z,46.78
2023-01-19T21:38:38.295Z,37.70
2023-01-19T21:41:12.789Z,39.15
2023-01-19T21:43:43.378Z,35.33
2023-01-19T21:46:29.671Z,38.83
2023-01-19T21:49:02.266Z,40.38
2023-01-19T21:51:35.035Z,50.08
2023-01-19T21:54:06.830Z,43.17
2023-01-19T21:56:38.251Z,44.13
2023-01-19T21:59:08.448Z,38.67
2023-01-19T22:01:38.700Z,42.63
2023-01-19T22:04:10.320Z,61.40
2023-01-19T22:06:49.142Z,47.08
2023-01-19T22:09:23.685Z,61.92
2023-01-19T22:11:53.913Z,69.47
2023-01-19T22:14:24.283Z,61.50
2023-01-19T22:16:54.566Z,64.85
2023-01-19T22:19:24.805Z,52.10
2023-01-19T22:21:54.982Z,46.90
2023-01-19T22:24:25.078Z,51.08
2023-01-19T22:26:55.669Z,49.50
2023-01-19T22:29:25.825Z,54.45
2023-01-19T22:31:56.034Z,67.15
2023-01-19T22:34:26.392Z,51.33
2023-01-19T22:36:56.613Z,52.47
2023-01-19T22:39:27.321Z,72.68
2023-01-19T22:41:57.448Z,47.47
2023-01-19T22:44:27.625Z,62.25
2023-01-19T22:46:57.791Z,60.47
2023-01-19T22:49:28.324Z,50.50
2023-01-19T22:51:58.440Z,54.33
2023-01-19T22:54:30.055Z,60.83
2023-01-19T22:57:00.320Z,57.45
2023-01-19T22:59:30.481Z,50.53
2023-01-19T23:02:00.708Z,55.03
2023-01-19T23:04:30.881Z,53.92
2023-01-19T23:07:01.007Z,51.05
2023-01-19T23:09:31.221Z,48.10
2023-01-19T23:12:01.424Z,56.00
2023-01-19T23:14:31.571Z,53.35
2023-01-19T23:17:01.781Z,56.10
2023-01-19T23:19:31.935Z,63.38
2023-01-19T23:22:02.099Z,58.40
2023-01-19T23:24:32.275Z,45.13
2023-01-19T23:27:02.788Z,46.35
2023-01-19T23:29:32.954Z,44.55
2023-01-19T23:32:03.893Z,51.30
2023-01-19T23:34:34.003Z,63.88
2023-01-19T23:37:04.109Z,69.93
2023-01-19T23:39:34.215Z,64.05
2023-01-19T23:42:05.274Z,68.07
2023-01-19T23:44:35.932Z,60.72
2023-01-19T23:47:06.056Z,63.15
2023-01-19T23:49:36.249Z,54.40
2023-01-19T23:52:06.349Z,63.92
2023-01-19T23:54:36.640Z,65.80
2023-01-19T23:57:06.779Z,95.47
2023-01-19T23:59:37.162Z,75.97
